Weather at Addison Airport

Public forecast

Using degrees Fahrenheit for public forecast. Weather courtesy of forecast.io.

Current aviation weather report (METAR) for Addison Airport

Retrieved 2020/09/29 19:47 UTC (57 minutes ago):

KADS 291947Z 29009G20KT 10SM SKC 26/M01 A3012

Closest aviation forecast (TAF) to Addison Airport

Closest forecast is Dallas Love Field, 7.3 nm (13.6 km) S. Retrieved 2020/09/29 18:24 UTC (2 hours ago):

TAF KDAL 291722Z 2918/3018 31011KT P6SM SKC FM300100 23005KT P6SM SKC